createdAt,value
2017-10-24T00:01:24.040Z,101669.25
2017-10-24T00:03:58.759Z,101667.52
2017-10-24T00:06:34.524Z,101667.05
2017-10-24T00:09:09.172Z,101671.09
2017-10-24T00:11:43.947Z,101671.54
2017-10-24T00:14:18.488Z,101668.87
2017-10-24T00:16:53.139Z,101666.78
2017-10-24T00:19:27.495Z,101673.13
2017-10-24T00:22:02.499Z,101674.42
2017-10-24T00:24:37.395Z,101667.13
2017-10-24T00:27:12.252Z,101665.61
2017-10-24T00:29:47.155Z,101669.71
2017-10-24T00:32:22.040Z,101663.67
2017-10-24T00:34:57.543Z,101667.86
2017-10-24T00:37:33.117Z,101670.28
2017-10-24T00:40:07.903Z,101667.70
2017-10-24T00:42:42.635Z,101668.67
2017-10-24T00:45:17.484Z,101672.33
2017-10-24T00:47:52.251Z,101677.20
2017-10-24T00:50:26.609Z,101671.91
2017-10-24T00:53:01.579Z,101667.87
2017-10-24T00:55:35.872Z,101657.83
2017-10-24T00:58:10.592Z,101677.02
2017-10-24T01:00:45.356Z,101682.25
2017-10-24T01:03:20.397Z,101683.75
2017-10-24T01:05:54.995Z,101685.10
2017-10-24T01:08:29.489Z,101677.14
2017-10-24T01:11:04.881Z,101684.55
2017-10-24T01:13:39.388Z,101691.02
2017-10-24T01:16:13.796Z,101690.57
2017-10-24T01:18:48.601Z,101693.31
2017-10-24T01:21:23.584Z,101689.61
2017-10-24T01:23:58.090Z,101694.01
2017-10-24T01:26:32.576Z,101682.23
2017-10-24T01:29:07.546Z,101691.98
2017-10-24T01:31:42.022Z,101688.73
2017-10-24T01:34:16.604Z,101687.31
2017-10-24T01:36:51.800Z,101690.52
2017-10-24T01:39:26.227Z,101687.64
2017-10-24T01:42:00.908Z,101691.34
2017-10-24T01:44:35.515Z,101696.34
2017-10-24T01:47:10.393Z,101699.82
2017-10-24T01:49:44.932Z,101687.16
2017-10-24T01:52:18.788Z,101676.33
2017-10-24T01:54:53.903Z,101673.53
2017-10-24T01:57:29.116Z,101679.85
2017-10-24T02:00:03.929Z,101682.05
2017-10-24T02:02:38.732Z,101680.70
2017-10-24T02:05:13.401Z,101690.28
2017-10-24T02:07:47.934Z,101688.11
2017-10-24T02:10:22.725Z,101687.92
2017-10-24T02:12:57.279Z,101682.77
2017-10-24T02:15:32.585Z,101676.25
2017-10-24T02:18:06.860Z,101679.07
2017-10-24T02:20:41.816Z,101671.43
2017-10-24T02:23:17.068Z,101677.27
2017-10-24T02:25:51.679Z,101674.70
2017-10-24T02:28:26.521Z,101674.80
2017-10-24T02:31:01.344Z,101663.48
2017-10-24T02:33:36.184Z,101668.30
2017-10-24T02:36:11.342Z,101662.57
2017-10-24T02:38:46.009Z,101669.91
2017-10-24T02:41:21.247Z,101666.99
2017-10-24T02:43:55.768Z,101668.89
2017-10-24T02:46:30.866Z,101670.36
2017-10-24T02:49:05.632Z,101663.51
2017-10-24T02:51:39.981Z,101667.73
2017-10-24T02:54:14.973Z,101667.34
2017-10-24T02:56:51.311Z,101667.34
2017-10-24T02:59:26.464Z,101668.79
2017-10-24T03:02:01.088Z,101675.23
2017-10-24T03:04:35.774Z,101675.36
2017-10-24T03:07:10.472Z,101672.48
2017-10-24T03:09:45.256Z,101675.05
2017-10-24T03:12:19.752Z,101668.33
2017-10-24T03:14:54.808Z,101664.29
2017-10-24T03:17:29.657Z,101665.17
2017-10-24T03:20:04.421Z,101660.40
2017-10-24T03:22:38.879Z,101663.19
2017-10-24T03:25:13.872Z,101662.70
2017-10-24T03:27:48.401Z,101661.95
2017-10-24T03:30:23.237Z,101659.73
2017-10-24T03:32:58.225Z,101671.67
2017-10-24T03:35:33.588Z,101671.47
2017-10-24T03:38:08.465Z,101669.67
2017-10-24T03:40:43.140Z,101679.39
2017-10-24T03:43:18.872Z,101675.27
2017-10-24T03:45:53.568Z,101675.94
2017-10-24T03:48:28.785Z,101670.77
2017-10-24T03:51:03.826Z,101669.50
2017-10-24T03:53:38.486Z,101665.10
2017-10-24T03:56:13.892Z,101665.57
2017-10-24T03:58:48.484Z,101655.91
2017-10-24T04:01:23.245Z,101663.63
2017-10-24T04:03:57.576Z,101649.00
2017-10-24T04:06:32.393Z,101648.03
2017-10-24T04:09:07.328Z,101636.69
2017-10-24T04:11:41.855Z,101630.97
2017-10-24T04:14:16.376Z,101625.73
2017-10-24T04:16:50.936Z,101632.54
2017-10-24T04:19:25.664Z,101634.48
2017-10-24T04:22:00.132Z,101635.06
2017-10-24T04:24:34.757Z,101630.03
2017-10-24T04:27:09.232Z,101615.48
2017-10-24T04:29:44.248Z,101645.42
2017-10-24T04:32:18.691Z,101647.24
2017-10-24T04:34:53.273Z,101649.52
2017-10-24T04:37:27.900Z,101641.17
2017-10-24T04:40:02.814Z,101644.38
2017-10-24T04:42:38.792Z,101636.28
2017-10-24T04:45:13.292Z,101647.87
2017-10-24T04:47:48.029Z,101648.25
2017-10-24T04:50:22.730Z,101654.67
2017-10-24T04:52:57.633Z,101653.84
2017-10-24T04:55:32.485Z,101651.70
2017-10-24T04:58:07.027Z,101651.25
2017-10-24T05:00:41.325Z,101645.80
2017-10-24T05:03:16.252Z,101647.32
2017-10-24T05:05:51.025Z,101650.02
2017-10-24T05:08:25.736Z,101644.76
2017-10-24T05:11:00.385Z,101642.80
2017-10-24T05:13:35.020Z,101639.67
2017-10-24T05:16:09.765Z,101637.20
2017-10-24T05:18:44.494Z,101638.94
2017-10-24T05:21:19.144Z,101635.16
2017-10-24T05:23:54.168Z,101626.52
2017-10-24T05:26:28.580Z,101624.17
2017-10-24T05:29:03.261Z,101632.66
2017-10-24T05:31:37.936Z,101629.95
2017-10-24T05:34:12.681Z,101637.27
2017-10-24T05:36:47.288Z,101635.16
2017-10-24T05:39:21.661Z,101640.44
2017-10-24T05:41:57.828Z,101646.66
2017-10-24T05:44:32.452Z,101642.39
2017-10-24T05:47:07.337Z,101653.05
2017-10-24T05:49:41.932Z,101658.96
2017-10-24T05:52:16.861Z,101660.64
2017-10-24T05:54:51.407Z,101646.44
2017-10-24T05:57:26.510Z,101653.59
2017-10-24T06:00:01.049Z,101655.54
2017-10-24T06:02:35.528Z,101654.83
2017-10-24T06:05:10.533Z,101649.48
2017-10-24T06:07:47.063Z,101652.45
2017-10-24T06:10:21.684Z,101647.17
2017-10-24T06:12:56.488Z,101644.80
2017-10-24T06:15:31.261Z,101643.11
2017-10-24T06:18:06.044Z,101640.03
2017-10-24T06:20:40.581Z,101644.34
2017-10-24T06:23:15.328Z,101637.91
2017-10-24T06:25:51.181Z,101644.11
2017-10-24T06:28:26.132Z,101640.52
2017-10-24T06:31:01.368Z,101640.45
2017-10-24T06:33:36.440Z,101636.21
2017-10-24T06:36:11.148Z,101644.59
2017-10-24T06:38:45.580Z,101640.16
2017-10-24T06:41:20.258Z,101631.48
2017-10-24T06:43:54.744Z,101636.87
2017-10-24T06:46:29.444Z,101629.80
2017-10-24T06:49:04.721Z,101633.59
2017-10-24T06:51:39.244Z,101633.67
2017-10-24T06:54:13.960Z,101631.58
2017-10-24T06:56:48.708Z,101639.43
2017-10-24T06:59:23.385Z,101648.06
2017-10-24T07:01:58.048Z,101647.74
2017-10-24T07:04:32.680Z,101648.53
2017-10-24T07:07:07.789Z,101667.50
2017-10-24T07:09:42.505Z,101652.33
2017-10-24T07:12:17.141Z,101657.59
2017-10-24T07:14:51.803Z,101662.67
2017-10-24T07:17:26.703Z,101661.47
2017-10-24T07:20:01.352Z,101663.91
2017-10-24T07:22:36.268Z,101655.42
2017-10-24T07:25:10.976Z,101651.47
2017-10-24T07:27:45.745Z,101641.22
2017-10-24T07:30:20.431Z,101640.16
2017-10-24T07:32:55.212Z,101646.06
2017-10-24T07:35:29.866Z,101651.94
2017-10-24T07:38:04.655Z,101648.06
2017-10-24T07:40:39.564Z,101647.21
2017-10-24T07:43:13.984Z,101633.80
2017-10-24T07:45:48.582Z,101644.02
2017-10-24T07:48:23.552Z,101645.19
2017-10-24T07:50:58.215Z,101641.13
2017-10-24T07:53:33.025Z,101646.71
2017-10-24T07:56:07.740Z,101642.80
2017-10-24T07:58:42.604Z,101647.94
2017-10-24T08:01:17.150Z,101645.61
2017-10-24T08:03:51.888Z,101644.85
2017-10-24T08:06:27.301Z,101645.48
2017-10-24T08:09:02.028Z,101640.19
2017-10-24T08:11:36.855Z,101643.08
2017-10-24T08:14:13.380Z,101646.19
2017-10-24T08:16:48.945Z,101651.19
2017-10-24T08:19:23.782Z,101644.78
2017-10-24T08:21:58.415Z,101642.57
2017-10-24T08:24:33.143Z,101644.36
2017-10-24T08:27:07.884Z,101639.20
2017-10-24T08:29:43.536Z,101641.73
2017-10-24T08:32:18.208Z,101643.72
2017-10-24T08:34:52.960Z,101646.80
2017-10-24T08:37:27.769Z,101640.77
2017-10-24T08:40:02.620Z,101649.36
2017-10-24T08:42:38.320Z,101646.72
2017-10-24T08:45:12.752Z,101637.34
2017-10-24T08:47:47.745Z,101640.63
2017-10-24T08:50:22.365Z,101628.44
2017-10-24T08:52:57.561Z,101629.80
2017-10-24T08:55:32.190Z,101638.94
2017-10-24T08:58:07.168Z,101634.94
2017-10-24T09:00:41.423Z,101629.59
2017-10-24T09:03:16.166Z,101632.80
2017-10-24T09:08:53.827Z,101611.12
2017-10-24T09:11:39.908Z,101617.42
2017-10-24T09:14:17.923Z,101623.37
2017-10-24T09:16:57.143Z,101619.55
2017-10-24T09:20:02.268Z,101626.87
2017-10-24T09:22:37.524Z,101633.39
2017-10-24T09:25:12.412Z,101636.10
2017-10-24T09:27:47.009Z,101642.52
2017-10-24T09:30:21.888Z,101635.70
2017-10-24T09:32:56.592Z,101629.94
2017-10-24T09:35:31.137Z,101635.92
2017-10-24T09:38:06.257Z,101636.08
2017-10-24T09:40:40.681Z,101649.02
2017-10-24T09:43:15.369Z,101639.92
2017-10-24T09:45:49.515Z,101629.47
2017-10-24T09:48:24.720Z,101617.76
2017-10-24T09:51:07.044Z,101612.87
2017-10-24T09:53:41.591Z,101620.34
2017-10-24T09:56:33.160Z,101619.67
2017-10-24T09:59:22.389Z,101604.57
2017-10-24T10:01:57.669Z,101603.50
2017-10-24T10:04:32.273Z,101599.51
2017-10-24T10:07:13.856Z,101600.23
2017-10-24T10:09:49.085Z,101601.48
2017-10-24T10:12:23.504Z,101607.81
2017-10-24T10:14:58.559Z,101605.45
2017-10-24T10:17:33.612Z,101603.16
2017-10-24T10:20:08.126Z,101597.20
2017-10-24T10:22:43.045Z,101613.00
2017-10-24T10:25:17.788Z,101610.52
2017-10-24T10:27:52.575Z,101622.04
2017-10-24T10:30:27.135Z,101621.62
2017-10-24T10:33:02.312Z,101617.97
2017-10-24T10:35:37.164Z,101623.92
2017-10-24T10:38:11.464Z,101624.31
2017-10-24T10:40:46.500Z,101623.84
2017-10-24T10:43:20.908Z,101628.63
2017-10-24T10:45:55.368Z,101615.42
2017-10-24T10:48:30.657Z,101609.66
2017-10-24T10:51:05.517Z,101615.48
2017-10-24T10:53:40.362Z,101611.61
2017-10-24T10:56:15.106Z,101610.79
2017-10-24T10:58:49.573Z,101617.14
2017-10-24T11:01:24.296Z,101622.52
2017-10-24T11:03:59.353Z,101615.95
2017-10-24T11:06:33.748Z,101603.77
2017-10-24T11:09:08.692Z,101611.98
2017-10-24T11:11:43.945Z,101603.39
2017-10-24T11:14:18.620Z,101595.83
2017-10-24T11:16:53.441Z,101598.89
2017-10-24T11:19:28.364Z,101587.31
2017-10-24T11:22:03.232Z,101577.05
2017-10-24T11:24:38.100Z,101568.86
2017-10-24T11:27:13.032Z,101563.97
2017-10-24T11:29:47.808Z,101553.19
2017-10-24T11:32:22.544Z,101559.37
2017-10-24T11:34:57.411Z,101570.09
2017-10-24T11:37:32.196Z,101572.87
2017-10-24T11:40:06.888Z,101571.33
2017-10-24T11:42:41.651Z,101579.09
2017-10-24T11:45:16.601Z,101575.13
2017-10-24T11:47:51.060Z,101565.20
2017-10-24T11:50:25.965Z,101574.28
2017-10-24T11:53:01.515Z,101590.04
2017-10-24T11:55:36.178Z,101589.67
2017-10-24T11:58:11.036Z,101586.75
2017-10-24T12:00:45.595Z,101582.41
2017-10-24T12:03:19.960Z,101577.84
2017-10-24T12:05:55.008Z,101582.75
2017-10-24T12:08:29.613Z,101569.59
2017-10-24T12:11:04.451Z,101570.45
2017-10-24T12:13:38.841Z,101581.84
2017-10-24T12:16:13.672Z,101568.08
2017-10-24T12:18:48.440Z,101565.60
2017-10-24T12:21:23.307Z,101556.34
2017-10-24T12:23:58.010Z,101560.99
2017-10-24T12:26:32.861Z,101554.75
2017-10-24T12:29:07.964Z,101552.24
2017-10-24T12:31:42.941Z,101539.66
2017-10-24T12:34:17.852Z,101544.65
2017-10-24T12:36:52.808Z,101538.03
2017-10-24T12:39:27.440Z,101532.95
2017-10-24T12:42:02.072Z,101540.80
2017-10-24T12:44:38.143Z,101535.00
2017-10-24T12:47:15.953Z,101530.27
2017-10-24T12:49:54.096Z,101527.18
2017-10-24T12:52:29.132Z,101535.55
2017-10-24T12:55:04.208Z,101538.08
2017-10-24T12:57:39.598Z,101537.56
2017-10-24T13:00:16.278Z,101532.69
2017-10-24T13:02:50.844Z,101532.20
2017-10-24T13:05:25.497Z,101521.52
2017-10-24T13:08:00.275Z,101527.76
2017-10-24T13:10:34.936Z,101521.73
2017-10-24T13:13:09.633Z,101523.84
2017-10-24T13:15:44.117Z,101520.30
2017-10-24T13:18:18.987Z,101521.89
2017-10-24T13:20:53.801Z,101524.81
2017-10-24T13:23:28.500Z,101518.94
2017-10-24T13:26:03.954Z,101526.80
2017-10-24T13:28:39.028Z,101527.09
2017-10-24T13:31:13.869Z,101522.78
2017-10-24T13:33:48.652Z,101522.84
2017-10-24T13:36:23.511Z,101529.55
2017-10-24T13:38:58.372Z,101517.36
2017-10-24T13:41:33.148Z,101511.40
2017-10-24T13:44:08.159Z,101500.84
2017-10-24T13:46:43.773Z,101505.13
2017-10-24T13:49:18.536Z,101510.84
2017-10-24T13:51:53.313Z,101506.00
2017-10-24T13:54:28.045Z,101507.36
2017-10-24T13:57:02.868Z,101511.23
2017-10-24T13:59:37.605Z,101505.52
2017-10-24T14:02:12.165Z,101501.10
2017-10-24T14:04:52.234Z,101512.21
2017-10-24T14:07:32.026Z,101511.45
2017-10-24T14:10:11.845Z,101512.49
2017-10-24T14:12:47.142Z,101511.34
2017-10-24T14:15:21.976Z,101517.16
2017-10-24T14:17:56.854Z,101520.25
2017-10-24T14:20:31.501Z,101515.79
2017-10-24T14:23:07.162Z,101513.32
2017-10-24T14:25:42.846Z,101525.08
2017-10-24T14:28:17.556Z,101520.67
2017-10-24T14:30:52.342Z,101521.64
2017-10-24T14:33:27.193Z,101517.63
2017-10-24T14:36:01.920Z,101514.61
2017-10-24T14:38:36.792Z,101511.92
2017-10-24T14:41:12.460Z,101519.55
2017-10-24T14:43:47.236Z,101519.67
2017-10-24T14:46:22.600Z,101521.05
2017-10-24T14:48:57.427Z,101518.84
2017-10-24T14:51:32.172Z,101531.04
2017-10-24T14:54:06.879Z,101527.27
2017-10-24T14:56:41.293Z,101522.14
2017-10-24T14:59:16.339Z,101522.36
2017-10-24T15:01:51.093Z,101520.70
2017-10-24T15:04:25.923Z,101519.58
2017-10-24T15:07:00.834Z,101513.55
2017-10-24T15:09:35.658Z,101512.41
2017-10-24T15:12:10.260Z,101511.16
2017-10-24T15:14:45.165Z,101512.86
2017-10-24T15:17:19.969Z,101520.50
2017-10-24T15:19:54.772Z,101516.38
2017-10-24T15:22:29.541Z,101513.28
2017-10-24T15:25:04.096Z,101513.64
2017-10-24T15:27:39.073Z,101507.22
2017-10-24T15:30:13.964Z,101499.89
2017-10-24T15:32:48.690Z,101488.91
2017-10-24T15:35:23.316Z,101493.44
2017-10-24T15:37:58.460Z,101496.38
2017-10-24T15:40:33.821Z,101492.68
2017-10-24T15:43:08.672Z,101494.27
2017-10-24T15:45:43.380Z,101489.61
2017-10-24T15:48:18.136Z,101492.24
2017-10-24T15:50:53.204Z,101484.01
2017-10-24T15:53:28.230Z,101503.40
2017-10-24T15:56:02.789Z,101503.70
2017-10-24T15:58:37.467Z,101495.70
2017-10-24T16:01:12.533Z,101497.55
2017-10-24T16:03:47.663Z,101485.47
2017-10-24T16:06:22.284Z,101514.03
2017-10-24T16:08:57.380Z,101515.16
2017-10-24T16:11:32.191Z,101488.63
2017-10-24T16:14:07.285Z,101490.00
2017-10-24T16:16:41.896Z,101470.84
2017-10-24T16:19:16.581Z,101483.59
2017-10-24T16:21:51.584Z,101474.41
2017-10-24T16:24:26.440Z,101474.77
2017-10-24T16:27:01.353Z,101487.66
2017-10-24T16:29:35.965Z,101475.60
2017-10-24T16:32:10.668Z,101470.03
2017-10-24T16:34:45.516Z,101463.69
2017-10-24T16:37:20.533Z,101455.94
2017-10-24T16:39:55.269Z,101444.99
2017-10-24T16:42:30.244Z,101440.11
2017-10-24T16:45:04.729Z,101429.48
2017-10-24T16:47:39.464Z,101433.27
2017-10-24T16:50:14.265Z,101435.12
2017-10-24T16:52:49.048Z,101435.28
2017-10-24T16:55:23.848Z,101435.52
2017-10-24T16:57:58.760Z,101432.09
2017-10-24T17:00:33.712Z,101424.89
2017-10-24T17:03:08.632Z,101425.51
2017-10-24T17:05:43.476Z,101432.96
2017-10-24T17:08:18.501Z,101429.47
2017-10-24T17:10:53.418Z,101443.20
2017-10-24T17:13:28.180Z,101428.39
2017-10-24T17:16:03.143Z,101433.60
2017-10-24T17:18:38.657Z,101425.28
2017-10-24T17:21:13.200Z,101422.02
2017-10-24T17:23:48.082Z,101417.31
2017-10-24T17:26:22.716Z,101427.88
2017-10-24T17:28:57.677Z,101428.09
2017-10-24T17:31:32.073Z,101421.99
2017-10-24T17:34:07.108Z,101429.75
2017-10-24T17:36:41.880Z,101428.90
2017-10-24T17:39:16.264Z,101425.92
2017-10-24T17:41:51.181Z,101431.40
2017-10-24T17:44:25.939Z,101439.22
2017-10-24T17:47:00.824Z,101445.42
2017-10-24T17:49:35.561Z,101431.92
2017-10-24T17:52:10.168Z,101426.94
2017-10-24T17:54:44.936Z,101418.34
2017-10-24T17:57:19.709Z,101418.42
2017-10-24T17:59:54.368Z,101420.95
2017-10-24T18:02:29.044Z,101425.48
2017-10-24T18:05:03.988Z,101418.55
2017-10-24T18:07:38.449Z,101427.09
2017-10-24T18:10:13.302Z,101429.41
2017-10-24T18:12:48.148Z,101421.56
2017-10-24T18:15:22.884Z,101422.08
2017-10-24T18:17:57.636Z,101418.08
2017-10-24T18:20:32.224Z,101421.02
2017-10-24T18:23:06.991Z,101413.31
2017-10-24T18:25:41.629Z,101411.44
2017-10-24T18:28:16.529Z,101409.53
2017-10-24T18:30:51.162Z,101407.78
2017-10-24T18:33:26.084Z,101400.19
2017-10-24T18:36:00.441Z,101406.64
2017-10-24T18:38:35.583Z,101386.53
2017-10-24T18:41:10.315Z,101397.66
2017-10-24T18:43:44.828Z,101396.05
2017-10-24T18:46:19.638Z,101390.55
2017-10-24T18:48:54.190Z,101386.17
2017-10-24T18:51:28.724Z,101386.47
2017-10-24T18:54:03.740Z,101387.35
2017-10-24T18:56:38.545Z,101394.22
2017-10-24T18:59:13.133Z,101396.83
2017-10-24T19:01:47.836Z,101395.61
2017-10-24T19:04:22.468Z,101398.18
2017-10-24T19:06:57.408Z,101400.53
2017-10-24T19:09:32.400Z,101404.13
2017-10-24T19:12:07.316Z,101395.17
2017-10-24T19:14:42.652Z,101391.31
2017-10-24T19:17:17.612Z,101392.27
2017-10-24T19:19:52.849Z,101385.03
2017-10-24T19:22:27.895Z,101390.03
2017-10-24T19:25:02.900Z,101396.45
2017-10-24T19:27:38.839Z,101403.39
2017-10-24T19:30:13.781Z,101396.52
2017-10-24T19:32:49.135Z,101389.80
2017-10-24T19:35:23.875Z,101393.10
2017-10-24T19:37:58.105Z,101393.10
2017-10-24T19:40:33.024Z,101396.48
2017-10-24T19:43:08.133Z,101403.93
2017-10-24T19:45:42.504Z,101396.95
2017-10-24T19:48:17.332Z,101397.83
2017-10-24T19:50:51.931Z,101399.89
2017-10-24T19:53:27.292Z,101395.73
2017-10-24T19:56:02.421Z,101402.27
2017-10-24T19:58:37.495Z,101407.05
2017-10-24T20:01:12.192Z,101405.56
2017-10-24T20:03:47.120Z,101414.71
2017-10-24T20:06:21.961Z,101407.58
2017-10-24T20:08:57.064Z,101408.50
2017-10-24T20:11:31.932Z,101410.42
2017-10-24T20:14:07.544Z,101417.66
2017-10-24T20:16:42.550Z,101410.42
2017-10-24T20:19:17.856Z,101416.07
2017-10-24T20:21:52.881Z,101412.83
2017-10-24T20:24:28.132Z,101421.09
2017-10-24T20:27:02.688Z,101406.27
2017-10-24T20:29:37.484Z,101416.97
2017-10-24T20:32:12.626Z,101415.72
2017-10-24T20:34:47.377Z,101424.23
2017-10-24T20:37:22.445Z,101424.67
2017-10-24T20:39:57.475Z,101430.46
2017-10-24T20:42:32.104Z,101431.78
2017-10-24T20:45:07.361Z,101437.14
2017-10-24T20:47:42.440Z,101436.14
2017-10-24T20:50:16.867Z,101429.92
2017-10-24T20:52:51.836Z,101437.27
2017-10-24T20:55:26.872Z,101427.86
2017-10-24T20:58:01.802Z,101435.89
2017-10-24T21:00:36.603Z,101431.95
2017-10-24T21:03:11.729Z,101429.88
2017-10-24T21:05:46.935Z,101428.80
2017-10-24T21:08:21.988Z,101429.74
2017-10-24T21:10:56.617Z,101424.74
2017-10-24T21:13:31.691Z,101417.73
2017-10-24T21:16:06.548Z,101418.50
2017-10-24T21:18:41.449Z,101396.46
2017-10-24T21:21:16.222Z,101399.47
2017-10-24T21:23:51.280Z,101405.47
2017-10-24T21:26:26.317Z,101408.69
2017-10-24T21:29:01.983Z,101409.63
2017-10-24T21:31:36.837Z,101412.41
2017-10-24T21:34:11.989Z,101418.13
2017-10-24T21:36:46.884Z,101421.47
2017-10-24T21:39:21.784Z,101413.08
2017-10-24T21:41:57.115Z,101413.29
2017-10-24T21:44:32.084Z,101404.69
2017-10-24T21:47:07.411Z,101400.83
2017-10-24T21:49:42.940Z,101408.19
2017-10-24T21:52:17.908Z,101398.14
2017-10-24T21:54:53.159Z,101397.22
2017-10-24T21:57:28.915Z,101392.63
2017-10-24T22:00:03.176Z,101393.98
2017-10-24T22:02:37.994Z,101401.16
2017-10-24T22:05:13.392Z,101390.86
2017-10-24T22:07:48.453Z,101389.79
2017-10-24T22:10:23.696Z,101408.11
2017-10-24T22:12:58.533Z,101397.69
2017-10-24T22:15:33.531Z,101396.97
2017-10-24T22:18:08.389Z,101380.92
2017-10-24T22:20:43.613Z,101390.88
2017-10-24T22:23:18.550Z,101390.16
2017-10-24T22:25:53.112Z,101386.16
2017-10-24T22:28:27.342Z,101389.48
2017-10-24T22:31:02.524Z,101381.08
2017-10-24T22:33:37.661Z,101386.39
2017-10-24T22:36:12.504Z,101383.84
2017-10-24T22:38:47.316Z,101386.00
2017-10-24T22:41:22.020Z,101387.52
2017-10-24T22:43:56.932Z,101389.95
2017-10-24T22:46:31.953Z,101391.94
2017-10-24T22:49:07.060Z,101391.72
2017-10-24T22:51:42.403Z,101391.23
2017-10-24T22:54:17.228Z,101392.95
2017-10-24T22:56:51.853Z,101386.66
2017-10-24T22:59:26.864Z,101391.87
2017-10-24T23:02:01.621Z,101385.38
2017-10-24T23:04:36.321Z,101379.05
2017-10-24T23:07:11.900Z,101388.03
2017-10-24T23:09:47.328Z,101394.76
2017-10-24T23:12:22.136Z,101393.03
2017-10-24T23:14:57.070Z,101400.76
2017-10-24T23:17:31.928Z,101395.16
2017-10-24T23:20:07.080Z,101386.37
2017-10-24T23:22:41.852Z,101391.06
2017-10-24T23:25:17.184Z,101382.26
2017-10-24T23:27:51.897Z,101391.78
2017-10-24T23:30:27.139Z,101389.34
2017-10-24T23:33:02.403Z,101388.34
2017-10-24T23:35:37.168Z,101386.91
2017-10-24T23:38:12.321Z,101380.47
2017-10-24T23:40:47.072Z,101377.20
2017-10-24T23:43:22.100Z,101377.03
2017-10-24T23:45:57.237Z,101374.54
2017-10-24T23:48:32.581Z,101388.06
2017-10-24T23:51:07.951Z,101382.11
2017-10-24T23:53:42.796Z,101385.50
2017-10-24T23:56:17.524Z,101384.42
2017-10-24T23:58:52.248Z,101383.12
